Pedhoulas Trader — C4JM2 — position and weather

sailwx.info

Track history (hours):
 
Tides and Currents Weather Stations Pressure Air Temp Water Temp Dewpoint Dewpoint Depression Visibility Wind Speed Wind Dir Waves Ship Positions

Pedhoulas Trader

Last reported at 2014-Sep-09 15:28 UTC. Time now 2014-Sep-16 21:29 UTC.
Position S 26°26' E 153°58'.

Length 229 m; draft 14.1 m.

Type: Cargo ship. MMSI: 210073000.

Date/timePositionNaut miles runAvg speedWind from/ knotsBaromVisibWave heightAir tempDewpointWater temp
2014-Sep-09 15:28S 26°26' E 153°58'9 9.1
2014-Sep-09 14:30S 26°35' E 153°58'2410.1
2014-Sep-09 12:06S 26°59' E 153°58'610.6
2014-Sep-09 11:31S 27°05' E 153°58'3110.3
2014-Sep-09 08:28S 27°36' E 153°56'9 9.7
2014-Sep-09 07:34S 27°45' E 153°56'9 9.3
2014-Sep-09 06:33S 27°55' E 153°56'277 9.5
2014-Sep-08 01:27S 32°25' E 152°44'17 9.1
2014-Sep-07 23:33S 32°38' E 152°31'9 9.2
2014-Sep-07 22:33S 32°44' E 152°23'1010.0
2014-Sep-07 21:32S 32°51' E 152°13'1010.1
2014-Sep-07 20:33S 32°55' E 152°03'10 9.5
2014-Sep-07 19:33S 32°58' E 151°52'6 6.0
2014-Sep-07 18:33S 32°54' E 151°46'1 1.4
2014-Sep-07 17:31S 32°53' E 151°46'0 0.0
2014-Sep-07 16:31S 32°53' E 151°46'0 0.0
2014-Sep-07 15:28S 32°53' E 151°46'0 0.0
2014-Sep-07 14:31S 32°53' E 151°46'0 0.0
2014-Sep-07 13:28S 32°53' E 151°46'0 0.0
2014-Sep-07 11:31S 32°53' E 151°46'0 0.0
2014-Sep-07 10:22S 32°53' E 151°46'0 0.0
2014-Sep-07 09:28S 32°53' E 151°46'0 0.0
2014-Sep-07 08:28S 32°53' E 151°46'0 0.0
2014-Sep-07 07:28S 32°53' E 151°46'0 0.0
2014-Sep-07 06:31S 32°53' E 151°46'0 0.0
2014-Sep-07 05:31S 32°53' E 151°46'0 0.0
2014-Sep-07 04:31S 32°53' E 151°46'0 0.0
2014-Sep-07 03:28S 32°53' E 151°46'0 0.0
2014-Sep-07 02:31S 32°53' E 151°46'0 0.0
2014-Sep-07 01:31S 32°53' E 151°46'0 0.0
2014-Sep-07 00:31S 32°53' E 151°46'0 0.0
2014-Sep-06 23:28S 32°53' E 151°46'0 0.0
2014-Sep-06 22:25S 32°53' E 151°46'0 0.0
2014-Sep-06 21:28S 32°53' E 151°46'0 0.0
2014-Sep-06 20:28S 32°53' E 151°46'0 0.0
2014-Sep-06 19:33S 32°53' E 151°46'4 3.6
2014-Sep-06 18:33S 32°55' E 151°49'6 6.1
2014-Sep-06 17:33S 32°58' E 151°55'6 6.0
2014-Sep-06 16:33S 32°56' E 152°02'5 5.4
2014-Sep-06 15:33S 32°54' E 152°08'7 7.2
2014-Sep-06 14:33S 32°52' E 152°16'1111.1
2014-Sep-06 13:33S 32°51' E 152°29'1211.7
2014-Sep-06 12:33S 32°49' E 152°43'1 1.4
2014-Sep-06 11:32S 32°50' E 152°44'3 0.8
2014-Sep-06 07:32S 32°52' E 152°41'1111.3
2014-Sep-06 06:33S 32°45' E 152°31'8 8.4
2014-Sep-06 05:33S 32°37' E 152°32'1313.2
2014-Sep-06 04:33S 32°28' E 152°44'24 1.2
2014-Sep-05 09:33S 32°49' E 152°55'7 6.9
2014-Sep-05 08:33S 32°45' E 152°50'5 5.1
2014-Sep-05 07:33S 32°42' E 152°44'10 9.6
2014-Sep-05 06:33S 32°51' E 152°39'7 7.2
2014-Sep-05 05:33S 32°46' E 152°33'5 5.3
2014-Sep-05 04:33S 32°41' E 152°32'8 7.9
2014-Sep-05 03:33S 32°35' E 152°38'8 6.9
2014-Sep-05 02:21S 32°28' E 152°43'6 7.1
2014-Sep-05 01:32S 32°23' E 152°46'  
Track history (hours):
 
Tides and Currents Weather Stations Pressure Air Temp Water Temp Dewpoint Dewpoint Depression Visibility Wind Speed Wind Dir Waves Ship Positions

Pedhoulas Trader

Last reported at 2014-Sep-09 15:28 UTC. Time now 2014-Sep-16 21:29 UTC.
Position S 26°26' E 153°58'.

Length 229 m; draft 14.1 m.

Type: Cargo ship. MMSI: 210073000.

Date/timePositionNaut miles runAvg speedWind from/ knotsBaromVisibWave heightAir tempDewpointWater temp
2014-Sep-09 15:28S 26°26' E 153°58'9 9.1
2014-Sep-09 14:30S 26°35' E 153°58'2410.1
2014-Sep-09 12:06S 26°59' E 153°58'610.6
2014-Sep-09 11:31S 27°05' E 153°58'3110.3
2014-Sep-09 08:28S 27°36' E 153°56'9 9.7
2014-Sep-09 07:34S 27°45' E 153°56'9 9.3
2014-Sep-09 06:33S 27°55' E 153°56'277 9.5
2014-Sep-08 01:27S 32°25' E 152°44'17 9.1
2014-Sep-07 23:33S 32°38' E 152°31'9 9.2
2014-Sep-07 22:33S 32°44' E 152°23'1010.0
2014-Sep-07 21:32S 32°51' E 152°13'1010.1
2014-Sep-07 20:33S 32°55' E 152°03'10 9.5
2014-Sep-07 19:33S 32°58' E 151°52'6 6.0
2014-Sep-07 18:33S 32°54' E 151°46'1 1.4
2014-Sep-07 17:31S 32°53' E 151°46'0 0.0
2014-Sep-07 16:31S 32°53' E 151°46'0 0.0
2014-Sep-07 15:28S 32°53' E 151°46'0 0.0
2014-Sep-07 14:31S 32°53' E 151°46'0 0.0
2014-Sep-07 13:28S 32°53' E 151°46'0 0.0
2014-Sep-07 11:31S 32°53' E 151°46'0 0.0
2014-Sep-07 10:22S 32°53' E 151°46'0 0.0
2014-Sep-07 09:28S 32°53' E 151°46'0 0.0
2014-Sep-07 08:28S 32°53' E 151°46'0 0.0
2014-Sep-07 07:28S 32°53' E 151°46'0 0.0
2014-Sep-07 06:31S 32°53' E 151°46'0 0.0
2014-Sep-07 05:31S 32°53' E 151°46'0 0.0
2014-Sep-07 04:31S 32°53' E 151°46'0 0.0
2014-Sep-07 03:28S 32°53' E 151°46'0 0.0
2014-Sep-07 02:31S 32°53' E 151°46'0 0.0
2014-Sep-07 01:31S 32°53' E 151°46'0 0.0
2014-Sep-07 00:31S 32°53' E 151°46'0 0.0
2014-Sep-06 23:28S 32°53' E 151°46'0 0.0
2014-Sep-06 22:25S 32°53' E 151°46'0 0.0
2014-Sep-06 21:28S 32°53' E 151°46'0 0.0
2014-Sep-06 20:28S 32°53' E 151°46'0 0.0
2014-Sep-06 19:33S 32°53' E 151°46'4 3.6
2014-Sep-06 18:33S 32°55' E 151°49'6 6.1
2014-Sep-06 17:33S 32°58' E 151°55'6 6.0
2014-Sep-06 16:33S 32°56' E 152°02'5 5.4
2014-Sep-06 15:33S 32°54' E 152°08'7 7.2
2014-Sep-06 14:33S 32°52' E 152°16'1111.1
2014-Sep-06 13:33S 32°51' E 152°29'1211.7
2014-Sep-06 12:33S 32°49' E 152°43'1 1.4
2014-Sep-06 11:32S 32°50' E 152°44'3 0.8
2014-Sep-06 07:32S 32°52' E 152°41'1111.3
2014-Sep-06 06:33S 32°45' E 152°31'8 8.4
2014-Sep-06 05:33S 32°37' E 152°32'1313.2
2014-Sep-06 04:33S 32°28' E 152°44'24 1.2
2014-Sep-05 09:33S 32°49' E 152°55'7 6.9
2014-Sep-05 08:33S 32°45' E 152°50'5 5.1
2014-Sep-05 07:33S 32°42' E 152°44'10 9.6
2014-Sep-05 06:33S 32°51' E 152°39'7 7.2
2014-Sep-05 05:33S 32°46' E 152°33'5 5.3
2014-Sep-05 04:33S 32°41' E 152°32'8 7.9
2014-Sep-05 03:33S 32°35' E 152°38'8 6.9
2014-Sep-05 02:21S 32°28' E 152°43'6 7.1
2014-Sep-05 01:32S 32°23' E 152°46'  

Dump ship's entire track history